San Francisco, CA

10:10 PM PST on December 19, 2014 (GMT -0800)
San Francisco International | Change Station
CLOSE
Current Station
Airport
Location: San Francisco,
Elevation: 16 ft
Nearby Weather Stations
Active Advisory: Coastal Flood Advisory

Elev 16 ft 37.62 °N, 122.37 °W | Updated 14 minutes ago

Overcast
Overcast
58 °F
Feels Like 58 °F
N
0
Wind Variable Wind from North

Today
High -- | Low -- °F
--% Chance of Precip.
Yesterday
High -- | Low -- °F
Precip. -- in
7:19 AM 4:53 PM
Waning Crescent, 4% visible
Pressure 30.14 in
Visibility 9.0 miles
Clouds Few 700 ft
Mostly Cloudy 1000 ft
Overcast 1500 ft
Dew Point 57 °F
Humidity 97%
Rainfall 0.38 in
Snow Depth Not available.
UV 0 out of 12
Pollen 2.00 out of 12
Air Quality Not available.
Flu Activity Not available.
METAR KSFO 200556Z 00000KT 9SM FEW007 BKN010 OVC015 14/14 A3014 RMK AO2 SLP207 60001 T01440139 10144 20139 53005

More Conditions Fewer Conditions

Pressure 30.14 in
Visibility 9.0 miles
Clouds Few 700 ft
Mostly Cloudy 1000 ft
Overcast 1500 ft
Dew Point 57 °F
Humidity 97%
Rainfall 0.38 in
Snow Depth Not available.
UV 0 out of 12
Pollen 2.00 out of 12
Air Quality Not available.
Flu Activity Not available.
METAR KSFO 200556Z 00000KT 9SM FEW007 BKN010 OVC015 14/14 A3014 RMK AO2 SLP207 60001 T01440139 10144 20139 53005

More Conditions Fewer Conditions

10-Day Weather Forecast

Almanac

Astronomy

Dec. 19, 2014 Rise Set
Actual Time
Civil Twilight
Nautical Twilight
Astronomical Twilight
Moon
Length of Visible Light
Length of Day
Tomorrow will be .
, % of the Moon is Illuminated

Today's Extremes

State Highs State Lows

Community

WunderPhotos

Upload Photos

1,779,144 photos uploaded!

WunderBlogs® & News

Nearby

Air Quality

  Air Quality AQ Index Pollutant
Not available.

Snow Depth

Station Depth Elevation

Earthquake Activity

City Distance Mag. Time & Date
Minimum magnitude displayed is 2.5.

Coastal Water Temperatures

Place Temperature

Nearby Weather Stations